sensor_id;sensor_type;location;lat;lon;timestamp;P1;durP1;ratioP1;P2;durP2;ratioP2
32319;SDS011;19080;51.750;5.888;2022-09-30T00:01:48;27.55;;;19.90;;
32319;SDS011;19080;51.750;5.888;2022-09-30T00:04:21;23.73;;;18.45;;
32319;SDS011;19080;51.750;5.888;2022-09-30T00:06:48;24.75;;;19.60;;
32319;SDS011;19080;51.750;5.888;2022-09-30T00:09:15;24.67;;;19.83;;
32319;SDS011;19080;51.750;5.888;2022-09-30T00:11:41;23.13;;;19.45;;
32319;SDS011;19080;51.750;5.888;2022-09-30T00:14:13;26.40;;;20.15;;
32319;SDS011;19080;51.750;5.888;2022-09-30T00:16:40;23.80;;;20.47;;
32319;SDS011;19080;51.750;5.888;2022-09-30T00:19:07;25.95;;;21.45;;
32319;SDS011;19080;51.750;5.888;2022-09-30T00:21:33;28.02;;;21.17;;
32319;SDS011;19080;51.750;5.888;2022-09-30T00:24:00;24.38;;;20.83;;
32319;SDS011;19080;51.750;5.888;2022-09-30T00:26:27;27.15;;;21.42;;
32319;SDS011;19080;51.750;5.888;2022-09-30T00:28:55;29.75;;;21.50;;
32319;SDS011;19080;51.750;5.888;2022-09-30T00:31:22;26.20;;;21.40;;
32319;SDS011;19080;51.750;5.888;2022-09-30T00:33:49;25.95;;;21.75;;
32319;SDS011;19080;51.750;5.888;2022-09-30T00:36:42;25.50;;;20.90;;
32319;SDS011;19080;51.750;5.888;2022-09-30T00:39:19;25.85;;;21.95;;
32319;SDS011;19080;51.750;5.888;2022-09-30T00:41:47;24.98;;;20.65;;
32319;SDS011;19080;51.750;5.888;2022-09-30T00:46:59;26.02;;;21.13;;
32319;SDS011;19080;51.750;5.888;2022-09-30T00:49:25;28.40;;;20.98;;
32319;SDS011;19080;51.750;5.888;2022-09-30T00:51:53;23.08;;;19.75;;
32319;SDS011;19080;51.750;5.888;2022-09-30T00:54:22;25.38;;;20.65;;
32319;SDS011;19080;51.750;5.888;2022-09-30T00:56:52;22.67;;;18.80;;
32319;SDS011;19080;51.750;5.888;2022-09-30T00:59:21;24.10;;;19.83;;
32319;SDS011;19080;51.750;5.888;2022-09-30T01:01:49;21.83;;;17.98;;
32319;SDS011;19080;51.750;5.888;2022-09-30T01:04:18;21.75;;;18.48;;
32319;SDS011;19080;51.750;5.888;2022-09-30T01:06:49;23.55;;;19.25;;
32319;SDS011;19080;51.750;5.888;2022-09-30T01:09:16;23.30;;;18.42;;
32319;SDS011;19080;51.750;5.888;2022-09-30T01:11:42;21.45;;;17.13;;
32319;SDS011;19080;51.750;5.888;2022-09-30T01:26:54;18.80;;;15.15;;
32319;SDS011;19080;51.750;5.888;2022-09-30T01:32:11;18.45;;;13.98;;
32319;SDS011;19080;51.750;5.888;2022-09-30T01:37:31;19.17;;;16.38;;
32319;SDS011;19080;51.750;5.888;2022-09-30T01:47:45;19.85;;;15.23;;
32319;SDS011;19080;51.750;5.888;2022-09-30T01:52:43;19.75;;;14.73;;
32319;SDS011;19080;51.750;5.888;2022-09-30T01:55:25;18.67;;;15.68;;
32319;SDS011;19080;51.750;5.888;2022-09-30T01:57:59;18.63;;;14.65;;
32319;SDS011;19080;51.750;5.888;2022-09-30T02:00:28;20.77;;;14.73;;
32319;SDS011;19080;51.750;5.888;2022-09-30T02:03:17;17.05;;;14.13;;
32319;SDS011;19080;51.750;5.888;2022-09-30T02:05:47;19.17;;;15.77;;
32319;SDS011;19080;51.750;5.888;2022-09-30T02:08:18;17.80;;;14.25;;
32319;SDS011;19080;51.750;5.888;2022-09-30T02:10:48;17.50;;;14.95;;
32319;SDS011;19080;51.750;5.888;2022-09-30T02:13:24;22.70;;;16.50;;
32319;SDS011;19080;51.750;5.888;2022-09-30T02:15:54;18.85;;;15.45;;
32319;SDS011;19080;51.750;5.888;2022-09-30T02:18:28;18.08;;;14.20;;
32319;SDS011;19080;51.750;5.888;2022-09-30T02:20:57;21.13;;;15.52;;
32319;SDS011;19080;51.750;5.888;2022-09-30T02:23:26;18.85;;;14.98;;
32319;SDS011;19080;51.750;5.888;2022-09-30T02:25:54;17.20;;;14.43;;
32319;SDS011;19080;51.750;5.888;2022-09-30T02:28:25;19.20;;;15.27;;
32319;SDS011;19080;51.750;5.888;2022-09-30T02:30:53;16.42;;;13.73;;
32319;SDS011;19080;51.750;5.888;2022-09-30T02:33:23;17.67;;;14.70;;
32319;SDS011;19080;51.750;5.888;2022-09-30T02:35:58;17.27;;;13.90;;
32319;SDS011;19080;51.750;5.888;2022-09-30T02:38:30;18.23;;;14.35;;
32319;SDS011;19080;51.750;5.888;2022-09-30T02:43:31;18.15;;;14.40;;
32319;SDS011;19080;51.750;5.888;2022-09-30T02:49:27;19.10;;;16.45;;
32319;SDS011;19080;51.750;5.888;2022-09-30T02:51:21;18.42;;;15.63;;
32319;SDS011;19080;51.750;5.888;2022-09-30T02:53:58;23.42;;;17.25;;
32319;SDS011;19080;51.750;5.888;2022-09-30T02:56:45;21.48;;;17.25;;
32319;SDS011;19080;51.750;5.888;2022-09-30T02:59:14;21.52;;;15.85;;
32319;SDS011;19080;51.750;5.888;2022-09-30T03:01:40;20.85;;;14.80;;
32319;SDS011;19080;51.750;5.888;2022-09-30T03:04:08;22.38;;;16.77;;
32319;SDS011;19080;51.750;5.888;2022-09-30T03:06:35;20.45;;;16.25;;
32319;SDS011;19080;51.750;5.888;2022-09-30T03:09:02;20.90;;;16.60;;
32319;SDS011;19080;51.750;5.888;2022-09-30T03:11:29;20.90;;;16.33;;
32319;SDS011;19080;51.750;5.888;2022-09-30T03:14:03;23.40;;;15.90;;
32319;SDS011;19080;51.750;5.888;2022-09-30T03:24:02;27.25;;;20.83;;
32319;SDS011;19080;51.750;5.888;2022-09-30T03:26:36;25.60;;;20.20;;
32319;SDS011;19080;51.750;5.888;2022-09-30T03:34:36;25.35;;;18.90;;
32319;SDS011;19080;51.750;5.888;2022-09-30T03:39:36;26.58;;;20.70;;
32319;SDS011;19080;51.750;5.888;2022-09-30T03:42:18;31.75;;;24.10;;
32319;SDS011;19080;51.750;5.888;2022-09-30T03:44:53;31.35;;;22.10;;
32319;SDS011;19080;51.750;5.888;2022-09-30T03:47:21;30.83;;;24.08;;
32319;SDS011;19080;51.750;5.888;2022-09-30T03:49:51;32.15;;;24.05;;
32319;SDS011;19080;51.750;5.888;2022-09-30T03:52:18;34.92;;;25.95;;
32319;SDS011;19080;51.750;5.888;2022-09-30T03:54:45;32.22;;;21.45;;
32319;SDS011;19080;51.750;5.888;2022-09-30T03:57:12;39.38;;;25.48;;
32319;SDS011;19080;51.750;5.888;2022-09-30T03:59:38;36.80;;;24.45;;
32319;SDS011;19080;51.750;5.888;2022-09-30T04:02:05;31.42;;;23.27;;
32319;SDS011;19080;51.750;5.888;2022-09-30T04:04:35;30.27;;;22.63;;
32319;SDS011;19080;51.750;5.888;2022-09-30T04:07:02;30.38;;;22.77;;
32319;SDS011;19080;51.750;5.888;2022-09-30T04:09:28;28.83;;;21.25;;
32319;SDS011;19080;51.750;5.888;2022-09-30T04:11:54;28.95;;;22.05;;
32319;SDS011;19080;51.750;5.888;2022-09-30T04:14:21;30.67;;;21.90;;
32319;SDS011;19080;51.750;5.888;2022-09-30T04:16:47;26.60;;;20.30;;
32319;SDS011;19080;51.750;5.888;2022-09-30T04:19:19;30.42;;;22.95;;
32319;SDS011;19080;51.750;5.888;2022-09-30T04:21:45;30.75;;;23.95;;
32319;SDS011;19080;51.750;5.888;2022-09-30T04:24:12;32.80;;;23.58;;
32319;SDS011;19080;51.750;5.888;2022-09-30T04:26:39;32.20;;;22.42;;
32319;SDS011;19080;51.750;5.888;2022-09-30T04:29:05;30.52;;;22.58;;
32319;SDS011;19080;51.750;5.888;2022-09-30T04:31:32;28.83;;;22.23;;
32319;SDS011;19080;51.750;5.888;2022-09-30T04:33:58;30.58;;;23.17;;
32319;SDS011;19080;51.750;5.888;2022-09-30T04:36:24;28.38;;;21.92;;
32319;SDS011;19080;51.750;5.888;2022-09-30T04:38:51;30.23;;;22.52;;
32319;SDS011;19080;51.750;5.888;2022-09-30T04:41:18;34.65;;;24.50;;
32319;SDS011;19080;51.750;5.888;2022-09-30T04:43:45;30.85;;;23.20;;
32319;SDS011;19080;51.750;5.888;2022-09-30T04:46:15;29.17;;;22.00;;
32319;SDS011;19080;51.750;5.888;2022-09-30T04:48:44;30.45;;;24.13;;
32319;SDS011;19080;51.750;5.888;2022-09-30T04:51:14;30.98;;;23.65;;
32319;SDS011;19080;51.750;5.888;2022-09-30T04:53:41;32.00;;;24.40;;
32319;SDS011;19080;51.750;5.888;2022-09-30T04:56:08;33.22;;;24.17;;
32319;SDS011;19080;51.750;5.888;2022-09-30T04:58:34;30.38;;;23.00;;
32319;SDS011;19080;51.750;5.888;2022-09-30T05:01:03;30.05;;;22.00;;
32319;SDS011;19080;51.750;5.888;2022-09-30T05:03:30;27.08;;;21.75;;
32319;SDS011;19080;51.750;5.888;2022-09-30T05:05:56;31.83;;;23.60;;
32319;SDS011;19080;51.750;5.888;2022-09-30T05:08:22;30.25;;;23.20;;
32319;SDS011;19080;51.750;5.888;2022-09-30T05:10:54;31.08;;;22.75;;
32319;SDS011;19080;51.750;5.888;2022-09-30T05:13:23;34.15;;;25.35;;
32319;SDS011;19080;51.750;5.888;2022-09-30T05:15:49;32.65;;;24.45;;
32319;SDS011;19080;51.750;5.888;2022-09-30T05:18:16;32.30;;;25.02;;
32319;SDS011;19080;51.750;5.888;2022-09-30T05:20:43;35.25;;;26.30;;
32319;SDS011;19080;51.750;5.888;2022-09-30T05:23:09;30.35;;;24.63;;
32319;SDS011;19080;51.750;5.888;2022-09-30T05:25:36;32.92;;;26.08;;
32319;SDS011;19080;51.750;5.888;2022-09-30T05:28:02;27.95;;;23.98;;
32319;SDS011;19080;51.750;5.888;2022-09-30T05:30:29;26.17;;;22.40;;
32319;SDS011;19080;51.750;5.888;2022-09-30T05:32:55;25.20;;;20.63;;
32319;SDS011;19080;51.750;5.888;2022-09-30T05:35:22;26.55;;;22.42;;
32319;SDS011;19080;51.750;5.888;2022-09-30T05:37:48;24.88;;;21.23;;
32319;SDS011;19080;51.750;5.888;2022-09-30T05:40:15;27.63;;;21.42;;
32319;SDS011;19080;51.750;5.888;2022-09-30T05:42:41;23.40;;;18.88;;
32319;SDS011;19080;51.750;5.888;2022-09-30T05:45:10;24.90;;;19.15;;
32319;SDS011;19080;51.750;5.888;2022-09-30T05:47:36;24.98;;;20.17;;
32319;SDS011;19080;51.750;5.888;2022-09-30T05:50:02;19.02;;;17.02;;
32319;SDS011;19080;51.750;5.888;2022-09-30T05:52:29;18.60;;;16.55;;
32319;SDS011;19080;51.750;5.888;2022-09-30T05:54:55;20.45;;;17.33;;
32319;SDS011;19080;51.750;5.888;2022-09-30T05:57:24;18.13;;;16.05;;
32319;SDS011;19080;51.750;5.888;2022-09-30T05:59:50;23.70;;;18.55;;
32319;SDS011;19080;51.750;5.888;2022-09-30T06:02:17;19.92;;;17.67;;
32319;SDS011;19080;51.750;5.888;2022-09-30T06:04:43;23.00;;;19.15;;
32319;SDS011;19080;51.750;5.888;2022-09-30T06:07:10;22.52;;;20.05;;
32319;SDS011;19080;51.750;5.888;2022-09-30T06:09:36;24.00;;;20.83;;
32319;SDS011;19080;51.750;5.888;2022-09-30T06:12:02;26.42;;;22.52;;
32319;SDS011;19080;51.750;5.888;2022-09-30T06:14:29;26.27;;;22.92;;
32319;SDS011;19080;51.750;5.888;2022-09-30T06:16:55;31.80;;;25.17;;
32319;SDS011;19080;51.750;5.888;2022-09-30T06:19:22;29.90;;;25.40;;
32319;SDS011;19080;51.750;5.888;2022-09-30T06:21:48;38.28;;;32.53;;
32319;SDS011;19080;51.750;5.888;2022-09-30T06:24:15;41.40;;;32.40;;
32319;SDS011;19080;51.750;5.888;2022-09-30T06:26:41;37.72;;;31.27;;
32319;SDS011;19080;51.750;5.888;2022-09-30T06:29:08;36.58;;;27.55;;
32319;SDS011;19080;51.750;5.888;2022-09-30T06:31:34;32.15;;;25.05;;
32319;SDS011;19080;51.750;5.888;2022-09-30T06:34:01;29.65;;;25.67;;
32319;SDS011;19080;51.750;5.888;2022-09-30T06:36:27;27.77;;;23.60;;
32319;SDS011;19080;51.750;5.888;2022-09-30T06:38:54;25.38;;;22.63;;
32319;SDS011;19080;51.750;5.888;2022-09-30T06:41:20;28.10;;;23.73;;
32319;SDS011;19080;51.750;5.888;2022-09-30T06:43:50;27.42;;;23.20;;
32319;SDS011;19080;51.750;5.888;2022-09-30T06:46:26;25.73;;;20.40;;
32319;SDS011;19080;51.750;5.888;2022-09-30T06:48:57;24.05;;;19.63;;
32319;SDS011;19080;51.750;5.888;2022-09-30T06:51:37;24.13;;;19.42;;
32319;SDS011;19080;51.750;5.888;2022-09-30T06:54:07;20.98;;;17.70;;
32319;SDS011;19080;51.750;5.888;2022-09-30T06:56:39;17.83;;;15.50;;
32319;SDS011;19080;51.750;5.888;2022-09-30T06:59:07;17.27;;;15.45;;
32319;SDS011;19080;51.750;5.888;2022-09-30T07:01:33;17.30;;;15.38;;
32319;SDS011;19080;51.750;5.888;2022-09-30T07:04:00;16.08;;;14.43;;
32319;SDS011;19080;51.750;5.888;2022-09-30T07:06:33;16.55;;;14.07;;
32319;SDS011;19080;51.750;5.888;2022-09-30T07:08:59;17.08;;;14.55;;
32319;SDS011;19080;51.750;5.888;2022-09-30T07:11:26;16.30;;;14.70;;
32319;SDS011;19080;51.750;5.888;2022-09-30T07:13:52;15.00;;;13.52;;
32319;SDS011;19080;51.750;5.888;2022-09-30T07:16:18;18.73;;;14.35;;
32319;SDS011;19080;51.750;5.888;2022-09-30T07:18:46;15.10;;;13.52;;
32319;SDS011;19080;51.750;5.888;2022-09-30T07:21:13;14.68;;;12.85;;
32319;SDS011;19080;51.750;5.888;2022-09-30T07:23:42;14.35;;;12.93;;
32319;SDS011;19080;51.750;5.888;2022-09-30T07:26:16;17.15;;;13.45;;
32319;SDS011;19080;51.750;5.888;2022-09-30T07:28:43;16.17;;;12.73;;
32319;SDS011;19080;51.750;5.888;2022-09-30T07:31:11;13.60;;;12.27;;
32319;SDS011;19080;51.750;5.888;2022-09-30T07:33:58;13.25;;;12.05;;
32319;SDS011;19080;51.750;5.888;2022-09-30T07:36:24;14.10;;;12.73;;
32319;SDS011;19080;51.750;5.888;2022-09-30T07:38:59;12.45;;;11.25;;
32319;SDS011;19080;51.750;5.888;2022-09-30T07:41:30;16.17;;;12.05;;
32319;SDS011;19080;51.750;5.888;2022-09-30T07:43:57;14.02;;;11.75;;
32319;SDS011;19080;51.750;5.888;2022-09-30T07:46:27;16.20;;;12.25;;
32319;SDS011;19080;51.750;5.888;2022-09-30T07:48:55;14.25;;;12.68;;
32319;SDS011;19080;51.750;5.888;2022-09-30T07:51:26;15.32;;;12.43;;
32319;SDS011;19080;51.750;5.888;2022-09-30T07:54:02;14.50;;;12.52;;
32319;SDS011;19080;51.750;5.888;2022-09-30T07:56:31;14.38;;;11.68;;
32319;SDS011;19080;51.750;5.888;2022-09-30T07:59:18;16.27;;;12.05;;
32319;SDS011;19080;51.750;5.888;2022-09-30T08:01:44;12.85;;;11.55;;
32319;SDS011;19080;51.750;5.888;2022-09-30T08:04:11;14.23;;;11.27;;
32319;SDS011;19080;51.750;5.888;2022-09-30T08:06:39;15.80;;;11.75;;
32319;SDS011;19080;51.750;5.888;2022-09-30T08:09:06;15.20;;;12.63;;
32319;SDS011;19080;51.750;5.888;2022-09-30T08:11:33;15.60;;;11.98;;
32319;SDS011;19080;51.750;5.888;2022-09-30T08:13:59;13.77;;;11.77;;
32319;SDS011;19080;51.750;5.888;2022-09-30T08:16:26;14.90;;;12.68;;
32319;SDS011;19080;51.750;5.888;2022-09-30T08:18:53;12.57;;;11.32;;
32319;SDS011;19080;51.750;5.888;2022-09-30T08:21:20;15.40;;;12.18;;
32319;SDS011;19080;51.750;5.888;2022-09-30T08:23:47;14.15;;;12.68;;
32319;SDS011;19080;51.750;5.888;2022-09-30T08:26:13;13.60;;;12.20;;
32319;SDS011;19080;51.750;5.888;2022-09-30T08:28:41;13.50;;;11.82;;
32319;SDS011;19080;51.750;5.888;2022-09-30T08:31:15;13.43;;;12.02;;
32319;SDS011;19080;51.750;5.888;2022-09-30T08:33:42;14.38;;;12.88;;
32319;SDS011;19080;51.750;5.888;2022-09-30T08:36:09;13.75;;;12.45;;
32319;SDS011;19080;51.750;5.888;2022-09-30T08:38:36;15.05;;;13.65;;
32319;SDS011;19080;51.750;5.888;2022-09-30T08:41:18;15.50;;;13.85;;
32319;SDS011;19080;51.750;5.888;2022-09-30T08:46:21;15.65;;;14.07;;
32319;SDS011;19080;51.750;5.888;2022-09-30T08:51:41;17.63;;;15.80;;
32319;SDS011;19080;51.750;5.888;2022-09-30T08:54:11;16.75;;;15.07;;
32319;SDS011;19080;51.750;5.888;2022-09-30T08:56:38;17.33;;;15.63;;
32319;SDS011;19080;51.750;5.888;2022-09-30T09:01:56;18.58;;;16.40;;
32319;SDS011;19080;51.750;5.888;2022-09-30T09:04:24;18.85;;;15.80;;
32319;SDS011;19080;51.750;5.888;2022-09-30T09:06:56;17.40;;;15.65;;
32319;SDS011;19080;51.750;5.888;2022-09-30T09:09:39;19.60;;;17.27;;
32319;SDS011;19080;51.750;5.888;2022-09-30T09:20:06;21.33;;;17.50;;
32319;SDS011;19080;51.750;5.888;2022-09-30T09:22:33;20.05;;;18.15;;
32319;SDS011;19080;51.750;5.888;2022-09-30T09:25:01;20.83;;;18.58;;
32319;SDS011;19080;51.750;5.888;2022-09-30T09:30:01;20.08;;;18.10;;
32319;SDS011;19080;51.750;5.888;2022-09-30T09:32:28;19.60;;;17.80;;
32319;SDS011;19080;51.750;5.888;2022-09-30T09:34:59;19.27;;;17.55;;
32319;SDS011;19080;51.750;5.888;2022-09-30T09:37:41;19.50;;;17.70;;
32319;SDS011;19080;51.750;5.888;2022-09-30T09:43:07;17.13;;;15.63;;
32319;SDS011;19080;51.750;5.888;2022-09-30T09:45:45;19.52;;;17.60;;
32319;SDS011;19080;51.750;5.888;2022-09-30T09:48:16;18.98;;;17.13;;
32319;SDS011;19080;51.750;5.888;2022-09-30T09:53:33;18.55;;;16.75;;
32319;SDS011;19080;51.750;5.888;2022-09-30T09:56:04;18.55;;;16.70;;
32319;SDS011;19080;51.750;5.888;2022-09-30T10:01:32;20.88;;;18.50;;
32319;SDS011;19080;51.750;5.888;2022-09-30T10:04:46;15.90;;;14.40;;
32319;SDS011;19080;51.750;5.888;2022-09-30T10:06:59;13.57;;;12.10;;
32319;SDS011;19080;51.750;5.888;2022-09-30T10:09:28;12.73;;;11.45;;
32319;SDS011;19080;51.750;5.888;2022-09-30T10:14:27;11.57;;;9.77;;
32319;SDS011;19080;51.750;5.888;2022-09-30T10:16:56;11.38;;;10.18;;
32319;SDS011;19080;51.750;5.888;2022-09-30T10:19:26;10.70;;;9.70;;
32319;SDS011;19080;51.750;5.888;2022-09-30T10:22:16;12.07;;;9.40;;
32319;SDS011;19080;51.750;5.888;2022-09-30T10:24:39;17.13;;;10.18;;
32319;SDS011;19080;51.750;5.888;2022-09-30T10:27:45;9.55;;;8.57;;
32319;SDS011;19080;51.750;5.888;2022-09-30T10:30:00;10.80;;;9.45;;
32319;SDS011;19080;51.750;5.888;2022-09-30T10:32:26;11.85;;;10.68;;
32319;SDS011;19080;51.750;5.888;2022-09-30T10:34:54;11.05;;;9.35;;
32319;SDS011;19080;51.750;5.888;2022-09-30T10:37:22;12.50;;;8.02;;
32319;SDS011;19080;51.750;5.888;2022-09-30T10:39:51;9.73;;;8.07;;
32319;SDS011;19080;51.750;5.888;2022-09-30T10:42:20;10.65;;;9.23;;
32319;SDS011;19080;51.750;5.888;2022-09-30T10:47:18;9.40;;;7.38;;
32319;SDS011;19080;51.750;5.888;2022-09-30T10:49:50;7.55;;;6.30;;
32319;SDS011;19080;51.750;5.888;2022-09-30T10:52:21;7.45;;;6.70;;
32319;SDS011;19080;51.750;5.888;2022-09-30T10:57:36;7.72;;;6.90;;
32319;SDS011;19080;51.750;5.888;2022-09-30T11:00:05;9.18;;;8.00;;
32319;SDS011;19080;51.750;5.888;2022-09-30T11:05:21;10.20;;;7.53;;
32319;SDS011;19080;51.750;5.888;2022-09-30T11:07:50;9.23;;;8.32;;
32319;SDS011;19080;51.750;5.888;2022-09-30T11:13:09;10.23;;;8.18;;
32319;SDS011;19080;51.750;5.888;2022-09-30T11:15:41;9.05;;;8.15;;
32319;SDS011;19080;51.750;5.888;2022-09-30T11:20:38;11.32;;;9.68;;
32319;SDS011;19080;51.750;5.888;2022-09-30T11:23:18;10.30;;;9.30;;
32319;SDS011;19080;51.750;5.888;2022-09-30T11:28:25;11.70;;;10.00;;
32319;SDS011;19080;51.750;5.888;2022-09-30T11:31:03;10.80;;;9.70;;
32319;SDS011;19080;51.750;5.888;2022-09-30T11:33:42;10.43;;;9.15;;
32319;SDS011;19080;51.750;5.888;2022-09-30T11:41:17;12.48;;;11.00;;
32319;SDS011;19080;51.750;5.888;2022-09-30T11:46:39;10.68;;;9.25;;
32319;SDS011;19080;51.750;5.888;2022-09-30T11:55:06;7.70;;;6.88;;
32319;SDS011;19080;51.750;5.888;2022-09-30T11:58:27;6.85;;;5.97;;
32319;SDS011;19080;51.750;5.888;2022-09-30T12:00:48;7.50;;;6.75;;
32319;SDS011;19080;51.750;5.888;2022-09-30T12:03:21;6.07;;;5.30;;
32319;SDS011;19080;51.750;5.888;2022-09-30T12:05:52;6.00;;;5.28;;
32319;SDS011;19080;51.750;5.888;2022-09-30T12:08:21;6.65;;;5.50;;
32319;SDS011;19080;51.750;5.888;2022-09-30T12:10:50;6.05;;;4.70;;
32319;SDS011;19080;51.750;5.888;2022-09-30T12:13:21;4.32;;;3.90;;
32319;SDS011;19080;51.750;5.888;2022-09-30T12:15:49;4.75;;;4.03;;
32319;SDS011;19080;51.750;5.888;2022-09-30T12:18:21;4.40;;;3.35;;
32319;SDS011;19080;51.750;5.888;2022-09-30T12:20:54;3.90;;;3.50;;
32319;SDS011;19080;51.750;5.888;2022-09-30T12:23:31;3.95;;;3.47;;
32319;SDS011;19080;51.750;5.888;2022-09-30T12:26:01;4.93;;;4.05;;
32319;SDS011;19080;51.750;5.888;2022-09-30T12:28:30;3.28;;;2.97;;
32319;SDS011;19080;51.750;5.888;2022-09-30T12:31:37;5.50;;;3.60;;
32319;SDS011;19080;51.750;5.888;2022-09-30T12:34:10;3.55;;;3.25;;
32319;SDS011;19080;51.750;5.888;2022-09-30T12:45:17;3.97;;;1.70;;
32319;SDS011;19080;51.750;5.888;2022-09-30T12:47:48;1.63;;;1.52;;
32319;SDS011;19080;51.750;5.888;2022-09-30T12:50:17;1.50;;;1.17;;
32319;SDS011;19080;51.750;5.888;2022-09-30T12:52:44;1.50;;;1.35;;
32319;SDS011;19080;51.750;5.888;2022-09-30T12:55:21;1.85;;;1.60;;
32319;SDS011;19080;51.750;5.888;2022-09-30T12:57:50;3.83;;;1.75;;
32319;SDS011;19080;51.750;5.888;2022-09-30T13:00:19;2.03;;;1.77;;
32319;SDS011;19080;51.750;5.888;2022-09-30T13:02:46;2.05;;;1.52;;
32319;SDS011;19080;51.750;5.888;2022-09-30T13:10:55;3.70;;;1.30;;
32319;SDS011;19080;51.750;5.888;2022-09-30T13:15:47;2.72;;;1.25;;
32319;SDS011;19080;51.750;5.888;2022-09-30T13:20:50;1.77;;;1.15;;
32319;SDS011;19080;51.750;5.888;2022-09-30T13:28:48;1.45;;;1.00;;
32319;SDS011;19080;51.750;5.888;2022-09-30T13:31:19;2.28;;;1.42;;
32319;SDS011;19080;51.750;5.888;2022-09-30T13:36:31;1.25;;;0.82;;
32319;SDS011;19080;51.750;5.888;2022-09-30T13:39:22;2.70;;;1.20;;
32319;SDS011;19080;51.750;5.888;2022-09-30T13:44:23;1.17;;;0.80;;
32319;SDS011;19080;51.750;5.888;2022-09-30T13:46:53;2.28;;;0.98;;
32319;SDS011;19080;51.750;5.888;2022-09-30T13:49:24;1.95;;;1.20;;
32319;SDS011;19080;51.750;5.888;2022-09-30T13:51:52;2.65;;;1.35;;
32319;SDS011;19080;51.750;5.888;2022-09-30T13:54:25;1.67;;;1.17;;
32319;SDS011;19080;51.750;5.888;2022-09-30T13:56:54;2.10;;;1.52;;
32319;SDS011;19080;51.750;5.888;2022-09-30T13:59:26;2.03;;;1.15;;
32319;SDS011;19080;51.750;5.888;2022-09-30T14:02:01;1.45;;;1.20;;
32319;SDS011;19080;51.750;5.888;2022-09-30T14:04:36;2.03;;;1.30;;
32319;SDS011;19080;51.750;5.888;2022-09-30T14:07:08;1.17;;;0.90;;
32319;SDS011;19080;51.750;5.888;2022-09-30T14:15:08;2.15;;;1.00;;
32319;SDS011;19080;51.750;5.888;2022-09-30T14:17:48;1.77;;;0.95;;
32319;SDS011;19080;51.750;5.888;2022-09-30T14:22:44;1.95;;;0.93;;
32319;SDS011;19080;51.750;5.888;2022-09-30T14:25:15;1.48;;;0.93;;
32319;SDS011;19080;51.750;5.888;2022-09-30T14:30:18;2.90;;;1.20;;
32319;SDS011;19080;51.750;5.888;2022-09-30T14:33:08;2.88;;;1.08;;
32319;SDS011;19080;51.750;5.888;2022-09-30T14:35:35;2.13;;;1.10;;
32319;SDS011;19080;51.750;5.888;2022-09-30T14:38:03;2.67;;;1.17;;
32319;SDS011;19080;51.750;5.888;2022-09-30T14:40:32;1.23;;;0.80;;
32319;SDS011;19080;51.750;5.888;2022-09-30T14:42:59;1.27;;;0.80;;
32319;SDS011;19080;51.750;5.888;2022-09-30T14:45:28;1.48;;;0.90;;
32319;SDS011;19080;51.750;5.888;2022-09-30T14:47:57;2.75;;;1.08;;
32319;SDS011;19080;51.750;5.888;2022-09-30T14:50:25;1.20;;;0.80;;
32319;SDS011;19080;51.750;5.888;2022-09-30T14:52:53;2.13;;;1.00;;
32319;SDS011;19080;51.750;5.888;2022-09-30T14:55:30;2.97;;;1.13;;
32319;SDS011;19080;51.750;5.888;2022-09-30T15:00:44;3.35;;;1.17;;
32319;SDS011;19080;51.750;5.888;2022-09-30T15:03:12;2.10;;;1.10;;
32319;SDS011;19080;51.750;5.888;2022-09-30T15:05:39;2.33;;;1.60;;
32319;SDS011;19080;51.750;5.888;2022-09-30T15:08:09;4.30;;;1.30;;
32319;SDS011;19080;51.750;5.888;2022-09-30T15:10:36;3.85;;;1.40;;
32319;SDS011;19080;51.750;5.888;2022-09-30T15:13:02;3.05;;;1.90;;
32319;SDS011;19080;51.750;5.888;2022-09-30T15:15:33;4.57;;;1.30;;
32319;SDS011;19080;51.750;5.888;2022-09-30T15:20:45;2.25;;;0.80;;
32319;SDS011;19080;51.750;5.888;2022-09-30T15:23:17;2.00;;;1.15;;
32319;SDS011;19080;51.750;5.888;2022-09-30T15:25:45;2.85;;;1.80;;
32319;SDS011;19080;51.750;5.888;2022-09-30T15:28:11;1.40;;;1.10;;
32319;SDS011;19080;51.750;5.888;2022-09-30T15:30:38;5.75;;;1.67;;
32319;SDS011;19080;51.750;5.888;2022-09-30T15:33:13;3.75;;;1.40;;
32319;SDS011;19080;51.750;5.888;2022-09-30T15:35:41;4.05;;;1.42;;
32319;SDS011;19080;51.750;5.888;2022-09-30T15:38:15;2.35;;;1.13;;
32319;SDS011;19080;51.750;5.888;2022-09-30T15:40:43;2.03;;;1.30;;
32319;SDS011;19080;51.750;5.888;2022-09-30T15:43:15;2.13;;;1.23;;
32319;SDS011;19080;51.750;5.888;2022-09-30T15:45:55;3.55;;;1.52;;
32319;SDS011;19080;51.750;5.888;2022-09-30T15:50:55;3.17;;;1.15;;
32319;SDS011;19080;51.750;5.888;2022-09-30T15:53:25;2.35;;;1.17;;
32319;SDS011;19080;51.750;5.888;2022-09-30T15:56:37;2.33;;;0.95;;
32319;SDS011;19080;51.750;5.888;2022-09-30T16:04:03;2.72;;;1.10;;
32319;SDS011;19080;51.750;5.888;2022-09-30T16:06:35;3.65;;;1.35;;
32319;SDS011;19080;51.750;5.888;2022-09-30T16:09:03;5.03;;;1.35;;
32319;SDS011;19080;51.750;5.888;2022-09-30T16:11:32;2.65;;;1.50;;
32319;SDS011;19080;51.750;5.888;2022-09-30T16:14:00;2.35;;;1.38;;
32319;SDS011;19080;51.750;5.888;2022-09-30T16:16:31;1.08;;;0.98;;
32319;SDS011;19080;51.750;5.888;2022-09-30T16:18:58;2.05;;;1.30;;
32319;SDS011;19080;51.750;5.888;2022-09-30T16:23:52;5.20;;;1.95;;
32319;SDS011;19080;51.750;5.888;2022-09-30T16:26:26;3.25;;;1.98;;
32319;SDS011;19080;51.750;5.888;2022-09-30T16:28:54;4.90;;;3.55;;
32319;SDS011;19080;51.750;5.888;2022-09-30T16:31:33;2.30;;;1.83;;
32319;SDS011;19080;51.750;5.888;2022-09-30T16:33:59;2.92;;;1.50;;
32319;SDS011;19080;51.750;5.888;2022-09-30T16:36:26;3.05;;;2.65;;
32319;SDS011;19080;51.750;5.888;2022-09-30T16:38:52;4.97;;;2.40;;
32319;SDS011;19080;51.750;5.888;2022-09-30T16:41:19;3.42;;;1.58;;
32319;SDS011;19080;51.750;5.888;2022-09-30T16:43:45;1.73;;;1.33;;
32319;SDS011;19080;51.750;5.888;2022-09-30T16:46:12;2.30;;;1.10;;
32319;SDS011;19080;51.750;5.888;2022-09-30T16:48:38;1.85;;;1.58;;
32319;SDS011;19080;51.750;5.888;2022-09-30T16:51:06;4.90;;;1.85;;
32319;SDS011;19080;51.750;5.888;2022-09-30T16:53:36;2.63;;;1.75;;
32319;SDS011;19080;51.750;5.888;2022-09-30T16:56:02;7.30;;;2.25;;
32319;SDS011;19080;51.750;5.888;2022-09-30T16:58:29;7.22;;;2.50;;
32319;SDS011;19080;51.750;5.888;2022-09-30T17:00:56;6.70;;;3.92;;
32319;SDS011;19080;51.750;5.888;2022-09-30T17:03:25;4.03;;;3.30;;
32319;SDS011;19080;51.750;5.888;2022-09-30T17:05:52;6.13;;;4.10;;
32319;SDS011;19080;51.750;5.888;2022-09-30T17:08:18;5.60;;;3.78;;
32319;SDS011;19080;51.750;5.888;2022-09-30T17:10:46;5.00;;;3.35;;
32319;SDS011;19080;51.750;5.888;2022-09-30T17:13:16;4.47;;;3.10;;
32319;SDS011;19080;51.750;5.888;2022-09-30T17:15:46;6.35;;;3.63;;
32319;SDS011;19080;51.750;5.888;2022-09-30T17:18:13;4.40;;;2.90;;
32319;SDS011;19080;51.750;5.888;2022-09-30T17:20:43;4.75;;;2.88;;
32319;SDS011;19080;51.750;5.888;2022-09-30T17:23:11;4.47;;;3.30;;
32319;SDS011;19080;51.750;5.888;2022-09-30T17:25:38;3.40;;;3.10;;
32319;SDS011;19080;51.750;5.888;2022-09-30T17:28:06;4.82;;;3.53;;
32319;SDS011;19080;51.750;5.888;2022-09-30T17:30:33;4.55;;;3.33;;
32319;SDS011;19080;51.750;5.888;2022-09-30T17:32:59;3.47;;;3.05;;
32319;SDS011;19080;51.750;5.888;2022-09-30T17:35:25;5.90;;;4.70;;